Alder, WA

5:22 AM PST on November 23, 2014 (GMT -0800)
Triangle Marsh | Change Station
CLOSE
Current Station
Personal Weather Station
Location: Eatonville, WA
Elevation: 757 ft
Nearby Weather Stations

Elev 757 ft 46.86 °N, 122.29 °W | Updated 1 second ago

Mostly Cloudy
Mostly Cloudy
45.1 °F
Feels Like 45 °F
N
0.0
Wind Variable Wind from North
Gusts 8.0 mph

Today
High -- | Low -- °F
--% Chance of Precip.
Yesterday
High -- | Low -- °F
Precip. -- in
7:23 AM 4:27 PM
New Moon, 1% visible
Pressure 30.15 in
Visibility 10.0 miles
Clouds Few 2500 ft
Scattered Clouds 3500 ft
Mostly Cloudy 5000 ft
Mostly Cloudy 6000 ft
Windchill 45 °F
Dew Point 40 °F
Humidity 83%
Rainfall 0.05 in
Snow Depth Not available.
UV 0 out of 12
Pollen .10 out of 12
Air Quality Not available.
Flu Activity Not available.
METAR KGRF 231258Z AUTO 15012KT 10SM DZ FEW025 SCT035 BKN050 BKN060 08/08 A3013 RMK AO2 RAB1203E1214 SLP208 P0000 T00800077 $

More Conditions Fewer Conditions

Pressure 30.15 in
Visibility 10.0 miles
Clouds Few 2500 ft
Scattered Clouds 3500 ft
Mostly Cloudy 5000 ft
Mostly Cloudy 6000 ft
Windchill 45 °F
Dew Point 40 °F
Humidity 83%
Rainfall 0.05 in
Snow Depth Not available.
UV 0 out of 12
Pollen .10 out of 12
Air Quality Not available.
Flu Activity Not available.
METAR KGRF 231258Z AUTO 15012KT 10SM DZ FEW025 SCT035 BKN050 BKN060 08/08 A3013 RMK AO2 RAB1203E1214 SLP208 P0000 T00800077 $

More Conditions Fewer Conditions

10-Day Weather Forecast

Almanac

Astronomy

Nov. 23, 2014 Rise Set
Actual Time
Civil Twilight
Nautical Twilight
Astronomical Twilight
Moon
Length of Visible Light
Length of Day
Tomorrow will be .
, % of the Moon is Illuminated

Today's Extremes

State Highs State Lows

Community

WunderPhotos

Upload Photos

1,773,054 photos uploaded!

WunderBlogs® & News

Nearby

Air Quality

  Air Quality AQ Index Pollutant
Not available.

Snow Depth

Station Depth Elevation

Earthquake Activity

City Distance Mag. Time & Date
Minimum magnitude displayed is 2.5.

Coastal Water Temperatures

Place Temperature

Nearby Weather Stations